Thrift, Georgia
Current Conditions -  °F | °C
As of 2:15 PM on Tuesday 21 Oct 2014 (Local Time) from KJYL Reporting Station
Clear Clear  
Wind Chill: 82°   Ceiling: Unl
Heat Index: 82°   Visibility: 10mi
Dew Point: 55°   Wind: 8mph
Humidity: 40%   Direction: 300°WNW
Pressure: 29.92"   Gusts: NA
Location:  32.7727°N, 81.9794°W
Report Text: KJYL 211815Z AUTO 30007KT 10SM CLR 28/13 A2992 RMK AO2 T02750127
Loading
Personal Weather Stations






























Interactive Weather Map
Tropical Storm Tracking
New forecast layout! Learn more

10-Day Weather Forecast

Advertisements
Track Severe Weather on mobile